createdAt,value
2024-04-12T00:00:16.210Z,26.76
2024-04-12T00:01:16.156Z,26.76
2024-04-12T00:02:32.066Z,26.76
2024-04-12T00:03:16.195Z,26.73
2024-04-12T00:04:16.148Z,26.75
2024-04-12T00:05:16.160Z,26.75
2024-04-12T00:06:16.196Z,26.76
2024-04-12T00:07:18.007Z,26.73
2024-04-12T00:08:16.142Z,26.75
2024-04-12T00:09:16.147Z,26.75
2024-04-12T00:10:16.135Z,26.75
2024-04-12T00:11:16.176Z,26.73
2024-04-12T00:12:16.241Z,26.76
2024-04-12T00:13:16.155Z,26.73
2024-04-12T00:14:16.153Z,26.75
2024-04-12T00:15:16.179Z,26.73
2024-04-12T00:16:16.188Z,26.76
2024-04-12T00:17:16.147Z,26.75
2024-04-12T00:18:17.136Z,26.73
2024-04-12T00:19:16.187Z,26.72
2024-04-12T00:20:16.157Z,26.72
2024-04-12T00:21:24.015Z,26.72
2024-04-12T00:22:16.260Z,26.73
2024-04-12T00:23:16.167Z,26.73
2024-04-12T00:24:19.002Z,26.75
2024-04-12T00:25:16.176Z,26.75
2024-04-12T00:26:16.159Z,26.76
2024-04-12T00:27:23.511Z,26.75
2024-04-12T00:28:16.172Z,26.73
2024-04-12T00:29:16.161Z,26.73
2024-04-12T00:30:42.533Z,26.71
2024-04-12T00:31:16.178Z,26.73
2024-04-12T00:32:16.208Z,26.73
2024-04-12T00:33:16.317Z,26.72
2024-04-12T00:34:16.246Z,26.72
2024-04-12T00:35:16.195Z,26.71
2024-04-12T00:36:16.282Z,26.69
2024-04-12T00:37:16.298Z,26.73
2024-04-12T00:38:16.311Z,26.72
2024-04-12T00:39:16.360Z,26.72
2024-04-12T00:40:16.446Z,26.71
2024-04-12T00:41:16.467Z,26.72
2024-04-12T00:42:16.490Z,26.72
2024-04-12T00:43:16.547Z,26.68
2024-04-12T00:44:16.583Z,26.68
2024-04-12T00:45:16.738Z,26.71
2024-04-12T00:46:16.658Z,26.71
2024-04-12T00:47:16.726Z,26.71
2024-04-12T00:48:16.839Z,26.72
2024-04-12T00:49:16.786Z,26.69
2024-04-12T00:50:16.824Z,26.71
2024-04-12T00:51:16.890Z,26.72
2024-04-12T00:52:31.512Z,26.72
2024-04-12T00:53:17.309Z,26.71
2024-04-12T00:54:17.152Z,26.71
2024-04-12T00:55:32.026Z,26.72
2024-04-12T00:56:17.226Z,26.68
2024-04-12T00:57:17.174Z,26.69
2024-04-12T00:58:17.178Z,26.71
2024-04-12T00:59:17.186Z,26.71
2024-04-12T01:00:17.205Z,26.69
2024-04-12T01:01:17.373Z,26.69
2024-04-12T01:02:17.223Z,26.69
2024-04-12T01:03:17.261Z,26.68
2024-04-12T01:04:17.242Z,26.69
2024-04-12T01:05:17.195Z,26.69
2024-04-12T01:06:17.213Z,26.69
2024-04-12T01:07:17.191Z,26.72
2024-04-12T01:08:17.195Z,26.69
2024-04-12T01:09:17.199Z,26.71
2024-04-12T01:10:17.200Z,26.68
2024-04-12T01:11:17.248Z,26.69
2024-04-12T01:12:17.208Z,26.69
2024-04-12T01:13:17.213Z,26.69
2024-04-12T01:14:32.075Z,26.71
2024-04-12T01:15:17.217Z,26.68
2024-04-12T01:16:17.219Z,26.69
2024-04-12T01:17:20.182Z,26.71
2024-04-12T01:18:17.322Z,26.69
2024-04-12T01:19:17.211Z,26.69
2024-04-12T01:20:24.024Z,26.72
2024-04-12T01:21:17.267Z,26.69
2024-04-12T01:22:17.224Z,26.68
2024-04-12T01:23:53.087Z,26.66
2024-04-12T01:24:17.222Z,26.69
2024-04-12T01:25:17.216Z,26.68
2024-04-12T01:26:17.231Z,26.72
2024-04-12T01:27:17.228Z,26.69
2024-04-12T01:28:17.464Z,26.71
2024-04-12T01:29:17.231Z,26.69
2024-04-12T01:30:17.241Z,26.68
2024-04-12T01:31:17.230Z,26.66
2024-04-12T01:32:17.284Z,26.64
2024-04-12T01:33:17.382Z,26.68
2024-04-12T01:34:17.238Z,26.69
2024-04-12T01:35:17.229Z,26.69
2024-04-12T01:36:17.239Z,26.69
2024-04-12T01:37:17.309Z,26.69
2024-04-12T01:38:17.245Z,26.69
2024-04-12T01:39:20.039Z,26.69
2024-04-12T01:40:17.238Z,26.66
2024-04-12T01:41:17.241Z,26.69
2024-04-12T01:42:17.237Z,26.68
2024-04-12T01:43:17.241Z,26.68
2024-04-12T01:44:17.248Z,26.68
2024-04-12T01:45:20.045Z,26.68
2024-04-12T01:46:17.260Z,26.68
2024-04-12T01:47:17.251Z,26.66
2024-04-12T01:48:41.765Z,26.66
2024-04-12T01:49:17.264Z,26.69
2024-04-12T01:50:17.259Z,26.68
2024-04-12T01:51:31.557Z,26.64
2024-04-12T01:52:17.259Z,26.66
2024-04-12T01:53:17.263Z,26.64
2024-04-12T01:54:17.262Z,26.66
2024-04-12T01:55:17.272Z,26.66
2024-04-12T01:56:17.276Z,26.69
2024-04-12T01:57:17.309Z,26.68
2024-04-12T01:58:17.356Z,26.66
2024-04-12T01:59:17.419Z,26.68
2024-04-12T02:00:17.503Z,26.68
2024-04-12T02:01:17.621Z,26.64
2024-04-12T02:02:17.550Z,26.64
2024-04-12T02:03:17.628Z,26.66
2024-04-12T02:04:17.683Z,26.68
2024-04-12T02:05:17.706Z,26.66
2024-04-12T02:06:18.295Z,26.66
2024-04-12T02:07:28.558Z,26.66
2024-04-12T02:08:17.868Z,26.64
2024-04-12T02:09:17.768Z,26.64
2024-04-12T02:10:18.562Z,26.63
2024-04-12T02:11:17.820Z,26.66
2024-04-12T02:12:17.796Z,26.64
2024-04-12T02:13:32.557Z,26.63
2024-04-12T02:14:17.783Z,26.64
2024-04-12T02:15:17.781Z,26.64
2024-04-12T02:16:40.575Z,26.66
2024-04-12T02:17:17.782Z,26.63
2024-04-12T02:18:17.817Z,26.64
2024-04-12T02:19:17.923Z,26.64
2024-04-12T02:20:17.801Z,26.64
2024-04-12T02:21:17.842Z,26.68
2024-04-12T02:22:17.791Z,26.66
2024-04-12T02:23:17.789Z,26.66
2024-04-12T02:24:17.793Z,26.62
2024-04-12T02:25:17.814Z,26.66
2024-04-12T02:26:17.819Z,26.64
2024-04-12T02:27:17.796Z,26.63
2024-04-12T02:28:17.806Z,26.66
2024-04-12T02:29:17.792Z,26.66
2024-04-12T02:30:17.854Z,26.62
2024-04-12T02:31:17.809Z,26.63
2024-04-12T02:32:17.867Z,26.64
2024-04-12T02:33:18.168Z,26.64
2024-04-12T02:34:17.929Z,26.64
2024-04-12T02:35:32.611Z,26.63
2024-04-12T02:36:18.376Z,26.64
2024-04-12T02:37:18.226Z,26.63
2024-04-12T02:38:33.248Z,26.64
2024-04-12T02:39:18.253Z,26.64
2024-04-12T02:40:18.259Z,26.62
2024-04-12T02:41:39.555Z,26.64
2024-04-12T02:42:18.261Z,26.64
2024-04-12T02:43:18.272Z,26.62
2024-04-12T02:44:54.115Z,26.64
2024-04-12T02:45:18.267Z,26.63
2024-04-12T02:46:18.269Z,26.63
2024-04-12T02:47:18.297Z,26.62
2024-04-12T02:48:18.367Z,26.64
2024-04-12T02:49:18.278Z,26.64
2024-04-12T02:50:18.287Z,26.62
2024-04-12T02:51:18.282Z,26.63
2024-04-12T02:52:18.277Z,26.63
2024-04-12T02:53:18.279Z,26.64
2024-04-12T02:54:18.383Z,26.63
2024-04-12T02:55:18.283Z,26.63
2024-04-12T02:56:18.290Z,26.63
2024-04-12T02:57:18.288Z,26.64
2024-04-12T02:58:18.280Z,26.66
2024-04-12T02:59:18.281Z,26.64
2024-04-12T03:00:25.092Z,26.63
2024-04-12T03:01:18.310Z,26.63
2024-04-12T03:02:18.358Z,26.63
2024-04-12T03:03:34.655Z,26.63
2024-04-12T03:04:18.296Z,26.63
2024-04-12T03:05:18.288Z,26.64
2024-04-12T03:06:21.610Z,26.62
2024-04-12T03:07:18.302Z,26.63
2024-04-12T03:08:18.307Z,26.60
2024-04-12T03:09:34.621Z,26.63
2024-04-12T03:10:18.321Z,26.62
2024-04-12T03:11:18.327Z,26.62
2024-04-12T03:12:18.409Z,26.62
2024-04-12T03:13:18.316Z,26.60
2024-04-12T03:14:18.320Z,26.63
2024-04-12T03:15:18.316Z,26.62
2024-04-12T03:16:18.337Z,26.62
2024-04-12T03:17:18.325Z,26.62
2024-04-12T03:18:18.384Z,26.60
2024-04-12T03:19:18.330Z,26.62
2024-04-12T03:20:18.329Z,26.62
2024-04-12T03:21:18.332Z,26.60
2024-04-12T03:22:18.325Z,26.60
2024-04-12T03:23:18.324Z,26.62
2024-04-12T03:24:18.374Z,26.62
2024-04-12T03:25:18.331Z,26.59
2024-04-12T03:26:18.336Z,26.60
2024-04-12T03:27:18.358Z,26.62
2024-04-12T03:28:33.095Z,26.60
2024-04-12T03:29:18.702Z,26.60
2024-04-12T03:30:18.323Z,26.63
2024-04-12T03:31:32.618Z,26.62
2024-04-12T03:32:18.345Z,26.63
2024-04-12T03:33:18.416Z,26.62
2024-04-12T03:34:39.427Z,26.60
2024-04-12T03:35:18.402Z,26.60
2024-04-12T03:36:18.348Z,26.60
2024-04-12T03:37:54.098Z,26.60
2024-04-12T03:38:18.350Z,26.62
2024-04-12T03:39:18.355Z,26.60
2024-04-12T03:40:18.421Z,26.62
2024-04-12T03:41:18.362Z,26.63
2024-04-12T03:42:18.439Z,26.62
2024-04-12T03:43:18.355Z,26.59
2024-04-12T03:44:18.360Z,26.62
2024-04-12T03:45:18.478Z,26.60
2024-04-12T03:46:18.355Z,26.60
2024-04-12T03:47:18.362Z,26.60
2024-04-12T03:48:18.466Z,26.60
2024-04-12T03:49:18.356Z,26.63
2024-04-12T03:50:18.356Z,26.59
2024-04-12T03:51:18.403Z,26.59
2024-04-12T03:52:18.364Z,26.62
2024-04-12T03:53:18.372Z,26.63
2024-04-12T03:54:18.371Z,26.60
2024-04-12T03:55:18.366Z,26.60
2024-04-12T03:56:20.145Z,26.60
2024-04-12T03:57:18.466Z,26.59
2024-04-12T03:58:18.498Z,26.60
2024-04-12T03:59:33.141Z,26.60
2024-04-12T04:00:18.440Z,26.62
2024-04-12T04:01:18.388Z,26.59
2024-04-12T04:02:41.659Z,26.60
2024-04-12T04:03:18.383Z,26.62
2024-04-12T04:04:18.386Z,26.59
2024-04-12T04:05:18.396Z,26.59
2024-04-12T04:06:18.412Z,26.59
2024-04-12T04:07:19.808Z,26.60
2024-04-12T04:08:18.622Z,26.60
2024-04-12T04:09:18.480Z,26.59
2024-04-12T04:10:18.520Z,26.58
2024-04-12T04:11:18.599Z,26.58
2024-04-12T04:12:19.386Z,26.60
2024-04-12T04:13:18.669Z,26.60
2024-04-12T04:14:18.716Z,26.62
2024-04-12T04:15:18.856Z,26.59
2024-04-12T04:16:18.823Z,26.60
2024-04-12T04:17:18.968Z,26.59
2024-04-12T04:18:25.678Z,26.59
2024-04-12T04:19:19.140Z,26.58
2024-04-12T04:20:18.927Z,26.60
2024-04-12T04:21:26.628Z,26.60
2024-04-12T04:22:18.932Z,26.56
2024-04-12T04:23:18.932Z,26.56
2024-04-12T04:24:18.933Z,26.58
2024-04-12T04:25:18.930Z,26.59
2024-04-12T04:26:18.933Z,26.60
2024-04-12T04:27:40.042Z,26.59
2024-04-12T04:28:18.940Z,26.58
2024-04-12T04:29:18.929Z,26.58
2024-04-12T04:30:54.626Z,26.58
2024-04-12T04:31:19.753Z,26.59
2024-04-12T04:32:19.123Z,26.59
2024-04-12T04:33:19.067Z,26.59
2024-04-12T04:34:18.947Z,26.56
2024-04-12T04:35:18.945Z,26.58
2024-04-12T04:36:18.948Z,26.56
2024-04-12T04:37:23.333Z,26.59
2024-04-12T04:38:19.956Z,26.59
2024-04-12T04:39:18.983Z,26.59
2024-04-12T04:40:19.963Z,26.56
2024-04-12T04:41:18.955Z,26.58
2024-04-12T04:42:18.958Z,26.58
2024-04-12T04:43:18.958Z,26.58
2024-04-12T04:44:18.990Z,26.58
2024-04-12T04:45:19.328Z,26.59
2024-04-12T04:46:18.961Z,26.59
2024-04-12T04:47:18.959Z,26.56
2024-04-12T04:48:19.182Z,26.58
2024-04-12T04:49:19.060Z,26.58
2024-04-12T04:50:18.955Z,26.59
2024-04-12T04:51:19.042Z,26.56
2024-04-12T04:52:26.393Z,26.55
2024-04-12T04:53:26.359Z,26.55
2024-04-12T04:54:26.372Z,26.56
2024-04-12T04:55:47.384Z,26.56
2024-04-12T04:56:26.369Z,26.58
2024-04-12T04:57:26.359Z,26.58
2024-04-12T04:58:40.965Z,26.59
2024-04-12T04:59:26.579Z,26.59
2024-04-12T05:00:26.639Z,26.59
2024-04-12T05:01:26.667Z,26.60
2024-04-12T05:02:26.671Z,26.60
2024-04-12T05:03:26.759Z,26.60
2024-04-12T05:04:26.703Z,26.60
2024-04-12T05:05:27.428Z,26.62
2024-04-12T05:06:26.785Z,26.60
2024-04-12T05:07:26.786Z,26.62
2024-04-12T05:08:26.815Z,26.62
2024-04-12T05:09:26.844Z,26.63
2024-04-12T05:10:27.290Z,26.63
2024-04-12T05:11:26.987Z,26.62
2024-04-12T05:12:27.049Z,26.63
2024-04-12T05:13:27.128Z,26.63
2024-04-12T05:14:26.987Z,26.63
2024-04-12T05:15:26.999Z,26.64
2024-04-12T05:16:27.037Z,26.63
2024-04-12T05:17:30.532Z,26.66
2024-04-12T05:18:27.128Z,26.64
2024-04-12T05:19:27.079Z,26.66
2024-04-12T05:20:42.113Z,26.64
2024-04-12T05:21:27.058Z,26.66
2024-04-12T05:22:27.069Z,26.68
2024-04-12T05:23:55.008Z,26.66
2024-04-12T05:24:27.069Z,26.68
2024-04-12T05:25:27.070Z,26.66
2024-04-12T05:26:55.017Z,26.68
2024-04-12T05:27:27.083Z,26.69
2024-04-12T05:28:27.078Z,26.68
2024-04-12T05:29:27.099Z,26.71
2024-04-12T05:30:27.088Z,26.72
2024-04-12T05:31:27.091Z,26.69
2024-04-12T05:32:27.534Z,26.69
2024-04-12T05:33:27.163Z,26.66
2024-04-12T05:34:27.099Z,26.60
2024-04-12T05:35:27.088Z,26.53
2024-04-12T05:36:28.001Z,26.48
2024-04-12T05:37:27.492Z,26.42
2024-04-12T05:38:27.091Z,26.39
2024-04-12T05:39:27.164Z,26.34
2024-04-12T05:40:27.094Z,26.32
2024-04-12T05:41:27.094Z,26.30
2024-04-12T05:42:27.559Z,26.31
2024-04-12T05:43:27.096Z,26.34
2024-04-12T05:44:27.098Z,26.38
2024-04-12T05:45:41.991Z,26.42
2024-04-12T05:46:27.106Z,26.45
2024-04-12T05:47:27.143Z,26.52
2024-04-12T05:48:48.184Z,26.55
2024-04-12T05:49:27.115Z,26.62
2024-04-12T05:50:27.125Z,26.66
2024-04-12T05:51:48.164Z,26.72
2024-04-12T05:52:27.113Z,26.75
2024-04-12T05:53:27.121Z,26.85
2024-04-12T05:54:27.127Z,26.86
2024-04-12T05:55:27.112Z,26.93
2024-04-12T05:56:27.429Z,26.99
2024-04-12T05:57:27.502Z,27.00
2024-04-12T05:58:27.118Z,27.03
2024-04-12T05:59:27.126Z,27.04
2024-04-12T06:00:27.125Z,27.10
2024-04-12T06:01:27.318Z,27.13
2024-04-12T06:02:27.165Z,27.17
2024-04-12T06:03:27.177Z,27.20
2024-04-12T06:04:27.119Z,27.26
2024-04-12T06:05:27.133Z,27.27
2024-04-12T06:06:27.142Z,27.26
2024-04-12T06:07:27.129Z,27.33
2024-04-12T06:08:27.137Z,27.36
2024-04-12T06:09:27.190Z,27.40
2024-04-12T06:10:29.999Z,27.41
2024-04-12T06:11:27.203Z,27.43
2024-04-12T06:12:27.301Z,27.47
2024-04-12T06:13:34.003Z,27.47
2024-04-12T06:14:27.141Z,27.51
2024-04-12T06:15:27.147Z,27.51
2024-04-12T06:16:51.543Z,27.51
2024-04-12T06:17:27.182Z,27.55
2024-04-12T06:18:27.302Z,27.60
2024-04-12T06:20:27.172Z,27.61
2024-04-12T06:21:27.181Z,27.62
2024-04-12T06:22:27.170Z,27.64
2024-04-12T06:23:29.030Z,27.62
2024-04-12T06:24:27.166Z,27.65
2024-04-12T06:25:27.164Z,27.64
2024-04-12T06:26:27.171Z,27.65
2024-04-12T06:27:27.172Z,27.64
2024-04-12T06:28:27.174Z,27.68
2024-04-12T06:29:32.968Z,27.68
2024-04-12T06:30:28.172Z,27.69
2024-04-12T06:31:27.161Z,27.72
2024-04-12T06:32:30.594Z,27.71
2024-04-12T06:33:27.258Z,27.72
2024-04-12T06:34:27.199Z,27.71
2024-04-12T06:35:34.013Z,27.69
2024-04-12T06:36:27.181Z,27.68
2024-04-12T06:37:27.175Z,27.69
2024-04-12T06:38:27.197Z,27.71
2024-04-12T06:39:27.164Z,27.71
2024-04-12T06:40:27.162Z,27.69
2024-04-12T06:41:34.014Z,27.74
2024-04-12T06:42:27.179Z,27.69
2024-04-12T06:43:27.172Z,27.71
2024-04-12T06:44:48.268Z,27.71
2024-04-12T06:45:27.182Z,27.72
2024-04-12T06:46:27.182Z,27.75
2024-04-12T06:47:27.337Z,27.74
2024-04-12T06:48:27.282Z,27.75
2024-04-12T06:49:27.184Z,27.77
2024-04-12T06:50:27.189Z,27.77
2024-04-12T06:51:27.191Z,27.75
2024-04-12T06:52:27.237Z,27.78
2024-04-12T06:53:27.202Z,27.80
2024-04-12T06:54:27.195Z,27.80
2024-04-12T06:55:27.191Z,27.78
2024-04-12T06:56:27.200Z,27.81
2024-04-12T06:57:27.231Z,27.81
2024-04-12T06:58:27.204Z,27.80
2024-04-12T06:59:27.217Z,27.81
2024-04-12T07:00:27.308Z,27.84
2024-04-12T07:01:27.267Z,27.82
2024-04-12T07:02:27.381Z,27.81
2024-04-12T07:03:27.338Z,27.84
2024-04-12T07:04:27.218Z,27.84
2024-04-12T07:05:27.208Z,27.84
2024-04-12T07:06:42.040Z,27.85
2024-04-12T07:07:27.216Z,27.85
2024-04-12T07:08:27.210Z,27.82
2024-04-12T07:09:42.027Z,27.88
2024-04-12T07:10:27.224Z,27.85
2024-04-12T07:11:27.215Z,27.87
2024-04-12T07:12:48.254Z,27.88
2024-04-12T07:13:27.236Z,27.88
2024-04-12T07:14:27.226Z,27.92
2024-04-12T07:15:27.222Z,27.89
2024-04-12T07:16:27.223Z,27.92
2024-04-12T07:17:27.394Z,27.94
2024-04-12T07:18:27.300Z,27.96
2024-04-12T07:19:27.229Z,27.96
2024-04-12T07:20:28.767Z,27.96
2024-04-12T07:21:27.284Z,28.02
2024-04-12T07:22:27.231Z,27.98
2024-04-12T07:23:27.235Z,27.96
2024-04-12T07:24:27.229Z,28.01
2024-04-12T07:25:27.228Z,28.01
2024-04-12T07:26:27.238Z,27.99
2024-04-12T07:27:27.237Z,28.05
2024-04-12T07:28:34.543Z,28.01
2024-04-12T07:29:27.228Z,28.02
2024-04-12T07:30:27.241Z,28.05
2024-04-12T07:31:27.235Z,28.03
2024-04-12T07:32:27.378Z,28.09
2024-04-12T07:33:27.381Z,28.08
2024-04-12T07:34:42.043Z,28.11
2024-04-12T07:35:27.307Z,28.12
2024-04-12T07:36:27.247Z,28.13
2024-04-12T07:37:51.551Z,28.12
2024-04-12T07:38:27.253Z,28.15
2024-04-12T07:39:27.299Z,28.15
2024-04-12T07:40:27.337Z,28.12
2024-04-12T07:41:27.291Z,28.15
2024-04-12T07:42:27.282Z,28.15
2024-04-12T07:43:27.274Z,28.15
2024-04-12T07:44:27.270Z,28.15
2024-04-12T07:45:27.284Z,28.19
2024-04-12T07:46:27.271Z,28.18
2024-04-12T07:47:27.322Z,28.22
2024-04-12T07:48:30.722Z,28.23
2024-04-12T07:49:28.304Z,28.23
2024-04-12T07:50:27.292Z,28.23
2024-04-12T07:51:27.281Z,28.25
2024-04-12T07:52:27.285Z,28.29
2024-04-12T07:53:27.334Z,28.27
2024-04-12T07:54:27.294Z,28.29
2024-04-12T07:55:27.281Z,28.27
2024-04-12T07:56:34.563Z,28.29
2024-04-12T07:57:27.288Z,28.30
2024-04-12T07:58:27.292Z,28.32
2024-04-12T07:59:48.311Z,28.32
2024-04-12T08:00:27.301Z,28.32
2024-04-12T08:01:27.536Z,28.35
2024-04-12T08:02:41.691Z,28.33
2024-04-12T08:03:27.594Z,28.35
2024-04-12T08:04:27.506Z,28.33
2024-04-12T08:05:48.357Z,28.36
2024-04-12T08:06:27.317Z,28.36
2024-04-12T08:07:29.213Z,28.40
2024-04-12T08:08:27.331Z,28.40
2024-04-12T08:09:27.345Z,28.42
2024-04-12T08:10:27.337Z,28.42
2024-04-12T08:11:27.352Z,28.43
2024-04-12T08:12:27.343Z,28.43
2024-04-12T08:13:27.330Z,28.44
2024-04-12T08:14:27.338Z,28.47
2024-04-12T08:15:27.376Z,28.46
2024-04-12T08:16:27.343Z,28.49
2024-04-12T08:17:27.499Z,28.50
2024-04-12T08:18:27.587Z,28.53
2024-04-12T08:19:27.505Z,28.50
2024-04-12T08:20:27.499Z,28.53
2024-04-12T08:21:27.586Z,28.52
2024-04-12T08:22:27.661Z,28.52
2024-04-12T08:23:27.359Z,28.54
2024-04-12T08:24:34.066Z,28.52
2024-04-12T08:25:27.365Z,28.52
2024-04-12T08:26:27.379Z,28.52
2024-04-12T08:27:41.575Z,28.52
2024-04-12T08:28:27.369Z,28.50
2024-04-12T08:29:27.362Z,28.50
2024-04-12T08:30:55.077Z,28.50
2024-04-12T08:31:27.374Z,28.47
2024-04-12T08:32:27.400Z,28.46
2024-04-12T08:33:27.437Z,28.44
2024-04-12T08:34:27.374Z,28.44
2024-04-12T08:35:27.439Z,28.42
2024-04-12T08:36:27.423Z,28.39
2024-04-12T08:37:27.392Z,28.32
2024-04-12T08:38:27.391Z,28.32
2024-04-12T08:39:27.418Z,28.32
2024-04-12T08:40:27.872Z,28.27
2024-04-12T08:41:27.391Z,28.29
2024-04-12T08:42:27.386Z,28.29
2024-04-12T08:43:27.383Z,28.32
2024-04-12T08:44:27.408Z,28.33
2024-04-12T08:45:27.394Z,28.36
2024-04-12T08:46:27.404Z,28.36
2024-04-12T08:47:27.448Z,28.39
2024-04-12T08:48:27.563Z,28.42
2024-04-12T08:49:34.583Z,28.42
2024-04-12T08:50:27.382Z,28.38
2024-04-12T08:51:27.385Z,28.39
2024-04-12T08:52:38.098Z,28.40
2024-04-12T08:53:27.403Z,28.40
2024-04-12T08:54:27.415Z,28.40
2024-04-12T08:55:42.083Z,28.42
2024-04-12T08:56:27.435Z,28.39
2024-04-12T08:57:27.594Z,28.40
2024-04-12T08:58:53.700Z,28.43
2024-04-12T08:59:27.406Z,28.40
2024-04-12T09:00:28.909Z,28.40
2024-04-12T09:01:27.460Z,28.42
2024-04-12T09:02:27.408Z,28.42
2024-04-12T09:03:28.117Z,28.42
2024-04-12T09:04:27.521Z,28.40
2024-04-12T09:05:27.416Z,28.42
2024-04-12T09:06:27.401Z,28.43
2024-04-12T09:07:27.411Z,28.47
2024-04-12T09:08:29.951Z,28.46
2024-04-12T09:09:27.488Z,28.44
2024-04-12T09:10:27.440Z,28.43
2024-04-12T09:11:27.490Z,28.44
2024-04-12T09:12:27.431Z,28.46
2024-04-12T09:13:29.306Z,28.46
2024-04-12T09:14:30.089Z,28.49
2024-04-12T09:15:27.446Z,28.49
2024-04-12T09:16:27.442Z,28.49
2024-04-12T09:17:27.684Z,28.50
2024-04-12T09:18:28.198Z,28.53
2024-04-12T09:19:27.716Z,28.50
2024-04-12T09:20:27.443Z,28.54
2024-04-12T09:21:27.563Z,28.50
2024-04-12T09:22:27.445Z,28.53
2024-04-12T09:23:48.476Z,28.53
2024-04-12T09:24:27.460Z,28.50
2024-04-12T09:25:27.537Z,28.53
2024-04-12T09:26:27.661Z,28.53
2024-04-12T09:27:27.483Z,28.49
2024-04-12T09:28:27.461Z,28.50
2024-04-12T09:29:27.456Z,28.44
2024-04-12T09:30:27.463Z,28.40
2024-04-12T09:31:27.464Z,28.42
2024-04-12T09:32:27.647Z,28.39
2024-04-12T09:33:27.575Z,28.36
2024-04-12T09:34:27.614Z,28.33
2024-04-12T09:35:27.478Z,28.27
2024-04-12T09:36:27.555Z,28.26
2024-04-12T09:37:27.500Z,28.25
2024-04-12T09:38:27.482Z,28.13
2024-04-12T09:39:34.103Z,28.13
2024-04-12T09:40:27.463Z,28.11
2024-04-12T09:41:27.472Z,28.06
2024-04-12T09:42:27.474Z,28.01
2024-04-12T09:43:27.485Z,27.98
2024-04-12T09:44:27.496Z,28.01
2024-04-12T09:45:34.264Z,27.94
2024-04-12T09:46:27.481Z,27.92
2024-04-12T09:47:27.655Z,27.89
2024-04-12T09:48:43.786Z,27.85
2024-04-12T09:49:27.510Z,27.84
2024-04-12T09:50:27.503Z,27.82
2024-04-12T09:51:27.590Z,27.80
2024-04-12T09:52:27.518Z,27.75
2024-04-12T09:53:27.497Z,27.74
2024-04-12T09:54:27.485Z,27.75
2024-04-12T09:55:27.491Z,27.74
2024-04-12T09:56:27.485Z,27.74
2024-04-12T09:57:27.512Z,27.69
2024-04-12T09:58:27.513Z,27.68
2024-04-12T09:59:27.493Z,27.68
2024-04-12T10:00:27.493Z,27.68
2024-04-12T10:01:27.507Z,27.64
2024-04-12T10:02:27.556Z,27.61
2024-04-12T10:03:27.592Z,27.58
2024-04-12T10:04:27.514Z,27.60
2024-04-12T10:05:27.509Z,27.60
2024-04-12T10:06:27.575Z,27.61
2024-04-12T10:07:32.645Z,27.61
2024-04-12T10:08:27.602Z,27.60
2024-04-12T10:09:27.616Z,27.54
2024-04-12T10:10:43.111Z,27.55
2024-04-12T10:11:27.681Z,27.54
2024-04-12T10:12:27.623Z,27.51
2024-04-12T10:13:42.125Z,27.51
2024-04-12T10:14:27.763Z,27.51
2024-04-12T10:15:27.809Z,27.51
2024-04-12T10:16:43.583Z,27.47
2024-04-12T10:17:27.945Z,27.41
2024-04-12T10:18:28.008Z,27.44
2024-04-12T10:19:27.887Z,27.41
2024-04-12T10:20:27.892Z,27.40
2024-04-12T10:21:27.907Z,27.34
2024-04-12T10:22:27.904Z,27.31
2024-04-12T10:23:27.900Z,27.30
2024-04-12T10:24:27.931Z,27.24
2024-04-12T10:25:27.919Z,27.23
2024-04-12T10:26:28.120Z,27.26
2024-04-12T10:27:28.177Z,27.27
2024-04-12T10:28:27.904Z,27.29
2024-04-12T10:29:27.910Z,27.30
2024-04-12T10:30:27.907Z,27.36
2024-04-12T10:31:27.914Z,27.37
2024-04-12T10:32:28.218Z,27.43
2024-04-12T10:33:28.064Z,27.45
2024-04-12T10:34:27.901Z,27.53
2024-04-12T10:35:34.625Z,27.51
2024-04-12T10:36:28.001Z,27.58
2024-04-12T10:37:27.909Z,27.60
2024-04-12T10:38:41.180Z,27.61
2024-04-12T10:39:28.982Z,27.66
2024-04-12T10:40:27.927Z,27.69
2024-04-12T10:41:51.668Z,27.71
2024-04-12T10:42:27.923Z,27.75
2024-04-12T10:43:27.919Z,27.77
2024-04-12T10:45:27.950Z,27.78
2024-04-12T10:46:27.958Z,27.81
2024-04-12T10:47:27.923Z,27.84
2024-04-12T10:48:27.974Z,27.85
2024-04-12T10:49:27.930Z,27.84
2024-04-12T10:50:27.936Z,27.87
2024-04-12T10:51:27.936Z,27.88
2024-04-12T10:52:27.958Z,27.91
2024-04-12T10:53:27.949Z,27.91
2024-04-12T10:54:27.930Z,27.89
2024-04-12T10:55:27.938Z,27.92
2024-04-12T10:56:27.964Z,27.92
2024-04-12T10:57:28.023Z,27.92
2024-04-12T10:58:27.942Z,27.94
2024-04-12T10:59:28.042Z,27.95
2024-04-12T11:00:34.742Z,27.95
2024-04-12T11:01:28.392Z,27.99
2024-04-12T11:02:28.002Z,27.96
2024-04-12T11:03:42.711Z,27.98
2024-04-12T11:04:27.995Z,27.96
2024-04-12T11:05:28.041Z,27.99
2024-04-12T11:06:48.974Z,27.98
2024-04-12T11:07:27.972Z,28.01
2024-04-12T11:08:28.170Z,28.01
2024-04-12T11:09:48.974Z,28.01
2024-04-12T11:10:27.969Z,28.01
2024-04-12T11:11:28.002Z,28.01
2024-04-12T11:12:28.160Z,28.01
2024-04-12T11:13:27.987Z,27.99
2024-04-12T11:14:27.992Z,28.01
2024-04-12T11:15:28.043Z,28.01
2024-04-12T11:16:28.008Z,28.01
2024-04-12T11:17:28.005Z,28.03
2024-04-12T11:18:28.118Z,28.01
2024-04-12T11:19:28.024Z,27.99
2024-04-12T11:20:28.006Z,28.02
2024-04-12T11:21:27.999Z,27.99
2024-04-12T11:22:28.023Z,28.03
2024-04-12T11:23:27.993Z,28.02
2024-04-12T11:24:28.003Z,28.02
2024-04-12T11:25:27.996Z,28.02
2024-04-12T11:26:28.025Z,28.02
2024-04-12T11:27:28.073Z,28.02
2024-04-12T11:28:44.171Z,28.03
2024-04-12T11:29:28.026Z,28.02
2024-04-12T11:30:28.015Z,28.02
2024-04-12T11:31:49.075Z,28.02
2024-04-12T11:32:28.020Z,28.01
2024-04-12T11:33:33.870Z,28.02
2024-04-12T11:35:00.270Z,28.02
2024-04-12T11:35:28.033Z,28.02
2024-04-12T11:36:28.031Z,28.02
2024-04-12T11:37:49.470Z,28.02
2024-04-12T11:38:28.035Z,28.02
2024-04-12T11:39:28.042Z,28.02
2024-04-12T11:40:28.050Z,28.02
2024-04-12T11:41:28.084Z,28.02
2024-04-12T11:42:28.048Z,28.01
2024-04-12T11:43:28.330Z,28.02
2024-04-12T11:44:28.129Z,28.03
2024-04-12T11:45:28.055Z,28.02
2024-04-12T11:46:28.074Z,28.01
2024-04-12T11:47:28.150Z,28.02
2024-04-12T11:48:28.186Z,28.02
2024-04-12T11:49:28.672Z,28.02
2024-04-12T11:50:28.086Z,28.02
2024-04-12T11:51:28.082Z,28.01
2024-04-12T11:52:28.086Z,28.02
2024-04-12T11:53:28.100Z,28.02
2024-04-12T11:54:28.074Z,28.01
2024-04-12T11:55:29.368Z,28.03
2024-04-12T11:56:34.720Z,28.02
2024-04-12T11:57:28.093Z,28.01
2024-04-12T11:58:28.083Z,28.03
2024-04-12T11:59:35.182Z,28.03
2024-04-12T12:00:28.107Z,28.02
2024-04-12T12:01:28.076Z,28.01
2024-04-12T12:02:56.793Z,28.01
2024-04-12T12:03:28.172Z,28.03
2024-04-12T12:04:28.167Z,28.01
2024-04-12T12:05:28.103Z,28.03
2024-04-12T12:06:28.109Z,28.02
2024-04-12T12:07:28.143Z,28.02
2024-04-12T12:08:28.088Z,28.05
2024-04-12T12:09:28.095Z,28.05
2024-04-12T12:10:28.093Z,28.02
2024-04-12T12:11:28.113Z,28.06
2024-04-12T12:12:28.699Z,28.06
2024-04-12T12:13:28.109Z,28.09
2024-04-12T12:14:28.108Z,28.06
2024-04-12T12:15:28.149Z,28.08
2024-04-12T12:16:28.137Z,28.08
2024-04-12T12:17:28.132Z,28.09
2024-04-12T12:18:28.221Z,28.11
2024-04-12T12:19:28.125Z,28.12
2024-04-12T12:20:28.130Z,28.11
2024-04-12T12:21:31.183Z,28.12
2024-04-12T12:22:28.127Z,28.11
2024-04-12T12:23:28.133Z,28.11
2024-04-12T12:24:49.472Z,28.11
2024-04-12T12:25:28.173Z,28.11
2024-04-12T12:26:28.148Z,28.11
2024-04-12T12:27:56.687Z,28.12
2024-04-12T12:28:28.205Z,28.12
2024-04-12T12:29:28.155Z,28.09
2024-04-12T12:30:28.256Z,28.12
2024-04-12T12:31:28.140Z,28.13
2024-04-12T12:32:28.212Z,28.11
2024-04-12T12:33:28.248Z,28.13
2024-04-12T12:34:28.150Z,28.13
2024-04-12T12:35:28.147Z,28.12
2024-04-12T12:36:28.153Z,28.12
2024-04-12T12:37:28.153Z,28.11
2024-04-12T12:38:28.150Z,28.13
2024-04-12T12:39:28.154Z,28.13
2024-04-12T12:40:28.159Z,28.11
2024-04-12T12:41:28.181Z,28.12
2024-04-12T12:42:28.164Z,28.12
2024-04-12T12:43:28.210Z,28.13
2024-04-12T12:44:28.164Z,28.13
2024-04-12T12:45:28.169Z,28.13
2024-04-12T12:46:42.692Z,28.15
2024-04-12T12:47:28.509Z,28.13
2024-04-12T12:48:28.468Z,28.16
2024-04-12T12:49:35.191Z,28.18
2024-04-12T12:50:28.355Z,28.16
2024-04-12T12:51:28.368Z,28.18
2024-04-12T12:52:39.194Z,28.19
2024-04-12T12:53:28.493Z,28.16
2024-04-12T12:54:28.375Z,28.19